Time;durP1;ratioP1;P1;durP2;ratioP2;P2;SDS_P1;SDS_P2;PMS_P1;PMS_P2;Temp;Humidity;BMP_temperature;BMP_pressure;BME280_temperature;BME280_humidity;BME280_pressure;Samples;Min_cycle;Max_cycle;Signal;HPM_P1;HPM_P2
2022/08/28 00:00:24;;;;;;;8.32;3.50;;;;;;;14.07;78.70;102055.41;4992940;28;20071;-86
2022/08/28 00:02:52;;;;;;;5.93;3.05;;;;;;;14.05;78.50;102057.78;4993063;28;20046;-86
2022/08/28 00:05:20;;;;;;;7.00;3.10;;;;;;;14.02;78.55;102061.31;5009567;28;20199;-86
2022/08/28 00:07:46;;;;;;;7.28;3.05;;;;;;;14.02;78.87;102058.63;4994409;28;20047;-87
2022/08/28 00:10:15;;;;;;;5.30;3.10;;;;;;;14.01;78.91;102059.81;4994474;28;20058;-87
2022/08/28 00:12:43;;;;;;;5.55;3.15;;;;;;;14.00;78.73;102055.63;4994475;28;20054;-87
2022/08/28 00:15:14;;;;;;;7.75;2.70;;;;;;;13.99;78.91;102056.84;4993309;28;20046;-86
2022/08/28 00:17:41;;;;;;;7.18;3.28;;;;;;;13.98;78.94;102060.69;4994234;28;20582;-86
2022/08/28 00:20:09;;;;;;;12.18;3.55;;;;;;;13.96;79.09;102063.81;4993017;28;20046;-86
2022/08/28 00:22:37;;;;;;;4.38;2.83;;;;;;;13.93;79.06;102061.25;4993944;28;20464;-86
2022/08/28 00:25:10;;;;;;;10.32;3.28;;;;;;;13.91;79.60;102058.25;4994214;28;20043;-87
2022/08/28 00:27:52;;;;;;;5.85;2.80;;;;;;;13.88;79.72;102056.44;4993818;28;20057;-84
2022/08/28 00:30:24;;;;;;;12.05;3.65;;;;;;;13.86;80.10;102059.53;4994847;28;20054;-84
2022/08/28 00:32:53;;;;;;;3.58;2.47;;;;;;;13.82;80.22;102060.81;4994237;28;20047;-85
2022/08/28 00:35:22;;;;;;;5.65;2.88;;;;;;;13.80;80.11;102058.56;4994391;28;20054;-86
2022/08/28 00:37:49;;;;;;;4.57;2.92;;;;;;;13.79;79.88;102064.34;4994289;28;20047;-85
2022/08/28 00:40:18;;;;;;;7.53;3.28;;;;;;;13.76;80.08;102062.53;4992985;28;20057;-86
2022/08/28 00:42:56;;;;;;;5.47;2.80;;;;;;;13.74;80.47;102054.19;4994035;28;20039;-86
2022/08/28 00:45:24;;;;;;;6.35;3.20;;;;;;;13.70;80.87;102056.97;4992957;28;20055;-87
2022/08/28 00:47:51;;;;;;;10.85;3.15;;;;;;;13.69;80.59;102058.88;4993603;28;20198;-86
2022/08/28 00:50:21;;;;;;;8.13;3.10;;;;;;;13.68;80.67;102060.06;4994132;28;20043;-87
2022/08/28 00:52:52;;;;;;;6.57;2.90;;;;;;;13.67;81.03;102061.25;4993807;28;20042;-87
2022/08/28 00:55:21;;;;;;;5.45;2.97;;;;;;;13.65;81.08;102063.59;4994582;28;20059;-86
2022/08/28 00:57:51;;;;;;;8.88;2.78;;;;;;;13.64;81.04;102058.66;4994100;28;20043;-87
2022/08/28 01:00:29;;;;;;;5.65;2.70;;;;;;;13.63;81.10;102057.16;4994599;28;20043;-87
2022/08/28 01:02:57;;;;;;;14.93;2.75;;;;;;;13.61;81.12;102065.63;4994509;28;20051;-87
2022/08/28 01:05:25;;;;;;;17.50;3.35;;;;;;;13.59;81.53;102065.34;4993289;28;20496;-87
2022/08/28 01:07:52;;;;;;;4.43;2.72;;;;;;;13.57;81.99;102056.22;4992398;28;20069;-87
2022/08/28 01:10:23;;;;;;;7.68;3.17;;;;;;;13.56;81.85;102060.84;4994312;28;20047;-86
2022/08/28 01:12:51;;;;;;;6.55;2.65;;;;;;;13.55;82.02;102056.66;4994061;28;20047;-86
2022/08/28 01:15:23;;;;;;;10.57;2.90;;;;;;;13.53;82.31;102063.63;4994725;28;20047;-87
2022/08/28 01:17:53;;;;;;;5.97;2.78;;;;;;;13.51;82.30;102060.63;4992055;28;20456;-87
2022/08/28 01:20:25;;;;;;;6.95;2.58;;;;;;;13.50;82.63;102064.47;4991528;28;20058;-86
2022/08/28 01:23:07;;;;;;;8.63;2.95;;;;;;;13.48;82.09;102064.13;4993350;28;20046;-86
2022/08/28 01:25:34;;;;;;;8.13;2.65;;;;;;;13.45;82.76;102063.06;4993961;28;20043;-87
2022/08/28 01:28:04;;;;;;;10.02;3.10;;;;;;;13.42;82.86;102063.16;4991935;28;20107;-87
2022/08/28 01:30:31;;;;;;;5.50;2.88;;;;;;;13.40;82.85;102065.53;4991852;28;20058;-87
2022/08/28 01:32:58;;;;;;;7.10;3.03;;;;;;;13.38;83.00;102065.94;4994453;28;20047;-87
2022/08/28 01:35:32;;;;;;;4.82;2.42;;;;;;;13.34;82.93;102070.66;4995193;28;20126;-87
2022/08/28 01:37:58;;;;;;;9.35;2.80;;;;;;;13.30;83.28;102072.66;4996508;28;20130;-86
2022/08/28 01:40:35;;;;;;;4.50;2.90;;;;;;;13.25;82.84;102063.25;4998633;28;20051;-87
2022/08/28 01:43:10;;;;;;;7.50;3.38;;;;;;;13.20;82.97;102066.44;4999278;28;20526;-87
2022/08/28 01:45:39;;;;;;;4.10;2.80;;;;;;;13.14;83.58;102064.72;4996677;28;20050;-87
2022/08/28 01:48:06;;;;;;;5.72;2.75;;;;;;;13.13;84.56;102068.56;4995291;28;20046;-87
2022/08/28 01:50:34;;;;;;;3.75;2.70;;;;;;;13.12;83.91;102069.72;4993037;28;20113;-87
2022/08/28 01:53:03;;;;;;;7.47;2.83;;;;;;;13.10;83.89;102058.72;4993542;28;20054;-87
2022/08/28 01:55:34;;;;;;;5.90;2.88;;;;;;;13.06;84.38;102060.72;4993764;28;20496;-88
2022/08/28 01:58:04;;;;;;;2.97;2.40;;;;;;;13.00;85.08;102063.94;4992601;28;20047;-88
2022/08/28 02:00:31;;;;;;;5.00;2.60;;;;;;;12.98;84.50;102062.84;4994046;28;20051;-87
2022/08/28 02:02:59;;;;;;;4.00;2.70;;;;;;;12.92;84.38;102062.63;4992563;28;20488;-87
2022/08/28 02:05:29;;;;;;;6.75;2.85;;;;;;;12.89;84.82;102071.47;4992612;28;20566;-87
2022/08/28 02:07:57;;;;;;;3.72;2.95;;;;;;;12.88;84.39;102064.63;4993297;28;20054;-87
2022/08/28 02:10:26;;;;;;;7.10;2.92;;;;;;;12.84;84.63;102063.97;4992987;28;20047;-87
2022/08/28 02:12:54;;;;;;;9.05;3.42;;;;;;;12.82;84.92;102068.25;4996048;28;20131;-87
2022/08/28 02:15:26;;;;;;;4.53;2.78;;;;;;;12.80;84.13;102067.91;4996304;28;20684;-86
2022/08/28 02:17:53;;;;;;;4.57;2.70;;;;;;;12.78;83.90;102068.34;4996043;28;20054;-87
2022/08/28 02:20:19;;;;;;;3.20;2.72;;;;;;;12.74;84.38;102077.63;4995642;28;20050;-86
2022/08/28 02:22:46;;;;;;;2.97;2.72;;;;;;;12.71;84.10;102078.47;4994324;28;20055;-86
2022/08/28 02:25:13;;;;;;;3.72;2.50;;;;;;;12.67;83.51;102075.91;4996857;28;20066;-86
2022/08/28 02:27:40;;;;;;;6.10;2.67;;;;;;;12.59;84.24;102079.91;4995660;28;20538;-86
2022/08/28 02:30:08;;;;;;;7.00;2.58;;;;;;;12.56;83.89;102080.75;4995888;28;20047;-87
2022/08/28 02:32:35;;;;;;;5.22;2.80;;;;;;;12.53;83.80;102079.66;4994077;28;20054;-87
2022/08/28 02:35:03;;;;;;;3.47;3.08;;;;;;;12.51;83.58;102082.00;4994391;28;20043;-87
2022/08/28 02:37:38;;;;;;;3.85;2.65;;;;;;;12.48;83.73;102074.09;4996676;28;20046;-87
2022/08/28 02:40:05;;;;;;;4.65;2.55;;;;;;;12.47;83.43;102075.25;4996009;28;20110;-86
2022/08/28 02:42:32;;;;;;;4.25;2.65;;;;;;;12.43;84.11;102077.25;4996049;28;20090;-86
2022/08/28 02:44:58;;;;;;;4.38;2.75;;;;;;;12.39;83.85;102076.63;4994634;28;20054;-87
2022/08/28 02:47:25;;;;;;;5.20;2.90;;;;;;;12.37;84.19;102081.63;4994175;28;20051;-87
2022/08/28 02:49:52;;;;;;;4.85;3.00;;;;;;;12.28;83.67;102082.97;4994328;28;20574;-87
2022/08/28 02:52:18;;;;;;;7.07;2.80;;;;;;;12.27;83.70;102081.47;4996093;28;20046;-87
2022/08/28 02:54:45;;;;;;;5.25;2.78;;;;;;;12.22;84.00;102079.28;4995127;28;20146;-87
2022/08/28 02:57:12;;;;;;;4.00;2.80;;;;;;;12.20;83.65;102078.97;4994521;28;20054;-87
2022/08/28 02:59:39;;;;;;;3.83;2.70;;;;;;;12.16;84.19;102082.88;4994026;28;20082;-87
2022/08/28 03:02:06;;;;;;;3.95;2.85;;;;;;;12.10;84.41;102079.94;5010577;28;20058;-87
2022/08/28 03:04:34;;;;;;;3.78;2.75;;;;;;;12.09;83.63;102083.78;4992740;28;20145;-87
2022/08/28 03:07:01;;;;;;;5.25;2.80;;;;;;;12.07;84.10;102086.13;4994712;28;20054;-87
2022/08/28 03:09:28;;;;;;;3.35;3.05;;;;;;;12.02;83.82;102086.63;4995018;28;20051;-87
2022/08/28 03:11:55;;;;;;;4.93;2.90;;;;;;;12.01;83.96;102087.78;4995210;28;20574;-87
2022/08/28 03:14:22;;;;;;;2.70;2.50;;;;;;;11.98;83.93;102094.72;4993512;28;20050;-87
2022/08/28 03:16:48;;;;;;;4.45;2.60;;;;;;;11.96;84.08;102088.31;4993575;28;20047;-86
2022/08/28 03:19:15;;;;;;;3.95;2.35;;;;;;;11.91;84.35;102086.13;4993105;28;20550;-86
2022/08/28 03:21:41;;;;;;;5.53;2.60;;;;;;;11.87;84.27;102093.47;4993005;28;20105;-87
2022/08/28 03:24:08;;;;;;;3.28;2.80;;;;;;;11.82;84.62;102085.94;4978334;28;20796;-87
2022/08/28 03:26:34;;;;;;;6.97;2.65;;;;;;;11.79;84.99;102087.53;4995361;28;20491;-86
2022/08/28 03:29:01;;;;;;;4.43;2.92;;;;;;;11.75;84.77;102094.06;4997140;28;20027;-90
2022/08/28 03:31:32;;;;;;;5.05;2.70;;;;;;;11.72;84.88;102089.56;4998039;28;20082;-89
2022/08/28 03:33:59;;;;;;;4.15;2.45;;;;;;;11.67;84.35;102096.88;4997203;28;20054;-90
2022/08/28 03:36:27;;;;;;;5.85;3.45;;;;;;;11.67;84.77;102093.47;4996784;28;20117;-89
2022/08/28 03:38:55;;;;;;;2.83;2.60;;;;;;;11.65;84.82;102095.78;4998021;28;20047;-90
2022/08/28 03:41:25;;;;;;;3.17;2.78;;;;;;;11.64;84.31;102096.97;4996752;28;20101;-90
2022/08/28 03:43:52;;;;;;;5.25;2.83;;;;;;;11.60;85.35;102097.03;4996746;28;20079;-89
2022/08/28 03:46:22;;;;;;;3.17;2.80;;;;;;;11.60;84.61;102104.28;4997585;28;20122;-89
2022/08/28 03:48:50;;;;;;;5.93;3.10;;;;;;;11.57;84.82;102102.47;4995572;28;20079;-90
2022/08/28 03:51:24;;;;;;;3.72;3.25;;;;;;;11.54;84.97;102100.63;4997792;28;20070;-89
2022/08/28 03:53:56;;;;;;;4.43;3.15;;;;;;;11.49;85.13;102093.84;4997314;28;20139;-89
2022/08/28 03:56:26;;;;;;;3.25;2.80;;;;;;;11.50;85.02;102102.59;4997015;28;20055;-89
2022/08/28 03:58:56;;;;;;;9.18;2.83;;;;;;;11.48;84.80;102116.34;4996357;28;20527;-89
2022/08/28 04:01:23;;;;;;;3.03;2.83;;;;;;;11.44;84.80;102110.34;4995473;28;20043;-89
2022/08/28 04:03:50;;;;;;;5.78;3.00;;;;;;;11.43;84.95;102113.41;4995147;28;20099;-89
2022/08/28 04:06:18;;;;;;;7.20;3.50;;;;;;;11.41;85.15;102116.50;4995244;28;20094;-89
2022/08/28 04:08:45;;;;;;;6.03;3.17;;;;;;;11.39;85.04;102118.81;4994217;28;20054;-88
2022/08/28 04:11:11;;;;;;;3.40;3.10;;;;;;;11.34;84.73;102124.63;4993727;28;20050;-88
2022/08/28 04:13:40;;;;;;;5.40;3.40;;;;;;;11.30;85.06;102123.94;4994242;28;20043;-88
2022/08/28 04:16:10;;;;;;;4.55;2.75;;;;;;;11.28;85.01;102121.69;4993793;28;20590;-88
2022/08/28 04:18:39;;;;;;;7.80;3.60;;;;;;;11.25;85.80;102119.84;4996320;28;20039;-88
2022/08/28 04:21:09;;;;;;;3.15;2.75;;;;;;;11.23;85.39;102127.50;4996326;28;20114;-88
2022/08/28 04:23:38;;;;;;;3.40;2.85;;;;;;;11.17;85.81;102118.50;4997342;28;20054;-87
2022/08/28 04:26:08;;;;;;;5.57;3.20;;;;;;;11.13;86.04;102122.38;4996632;28;20039;-88
2022/08/28 04:28:35;;;;;;;4.27;3.17;;;;;;;11.10;86.35;102123.94;4995742;28;20629;-88
2022/08/28 04:31:02;;;;;;;6.60;3.40;;;;;;;11.06;86.29;102131.25;4995493;28;20046;-89
2022/08/28 04:33:29;;;;;;;5.32;2.90;;;;;;;11.02;86.50;102126.00;4995410;28;20043;-88
2022/08/28 04:35:56;;;;;;;4.43;3.10;;;;;;;11.03;87.05;102124.06;4995903;28;20087;-88
2022/08/28 04:38:22;;;;;;;3.80;2.85;;;;;;;11.02;87.19;102125.25;4995834;28;20046;-88
2022/08/28 04:40:49;;;;;;;4.53;2.72;;;;;;;11.02;87.37;102127.91;4995534;28;20042;-88
2022/08/28 04:43:16;;;;;;;4.10;2.42;;;;;;;10.99;87.68;102129.47;4995402;28;20102;-89
2022/08/28 04:45:44;;;;;;;3.65;2.70;;;;;;;10.98;87.62;102127.97;4994643;28;20047;-88
2022/08/28 04:48:12;;;;;;;5.20;2.67;;;;;;;10.97;87.83;102134.44;4995022;28;20055;-88
2022/08/28 04:50:41;;;;;;;2.92;2.40;;;;;;;10.97;87.98;102131.03;4994813;28;20043;-89
2022/08/28 04:53:08;;;;;;;4.13;2.50;;;;;;;10.96;88.29;102137.53;4995159;28;20416;-90
2022/08/28 04:55:47;;;;;;;3.25;2.80;;;;;;;10.99;87.96;102140.13;4996528;28;20488;-90
2022/08/28 04:58:21;;;;;;;2.85;2.65;;;;;;;11.00;87.70;102138.97;5006241;28;20059;-90
2022/08/28 05:00:51;;;;;;;3.05;2.78;;;;;;;11.02;87.88;102139.31;5010219;28;20055;-88
2022/08/28 05:03:17;;;;;;;4.05;2.83;;;;;;;11.05;87.77;102142.31;5005762;28;20831;-89
2022/08/28 05:05:47;;;;;;;4.18;2.53;;;;;;;11.05;88.08;102143.06;5011898;28;20058;-88
2022/08/28 05:08:16;;;;;;;3.47;2.63;;;;;;;11.07;87.66;102154.09;4997608;28;20050;-89
2022/08/28 05:10:44;;;;;;;3.75;2.50;;;;;;;11.08;87.82;102152.91;4995380;28;20488;-89
2022/08/28 05:13:11;;;;;;;6.10;3.10;;;;;;;11.07;88.24;102153.31;4995568;28;20793;-89
2022/08/28 05:15:39;;;;;;;3.92;2.83;;;;;;;11.06;87.99;102154.50;4994716;28;20051;-88
2022/08/28 05:18:07;;;;;;;7.70;2.50;;;;;;;11.08;88.27;102152.16;4996599;28;20931;-89
2022/08/28 05:20:38;;;;;;;4.00;2.30;;;;;;;11.14;87.96;102150.53;4994134;28;20070;-88
2022/08/28 05:23:06;;;;;;;4.53;2.85;;;;;;;11.17;88.17;102158.47;4996108;28;20043;-89
2022/08/28 05:25:38;;;;;;;10.73;2.70;;;;;;;11.22;87.67;102149.97;4994565;28;20047;-88
2022/08/28 05:28:05;;;;;;;3.42;2.22;;;;;;;11.26;87.97;102155.25;4994369;28;20055;-89
2022/08/28 05:30:39;;;;;;;4.68;2.47;;;;;;;11.29;88.07;102152.50;4996292;28;20049;-88
2022/08/28 05:33:06;;;;;;;6.43;2.88;;;;;;;11.34;87.97;102157.38;4995884;28;20510;-89
2022/08/28 05:35:35;;;;;;;3.90;2.70;;;;;;;11.42;88.24;102159.91;4995549;28;20095;-88
2022/08/28 05:38:01;;;;;;;6.43;2.95;;;;;;;11.50;88.58;102156.69;4994865;28;20043;-89
2022/08/28 05:40:28;;;;;;;6.15;2.92;;;;;;;11.61;88.99;102165.22;4994549;28;20051;-89
2022/08/28 05:42:54;;;;;;;2.92;2.70;;;;;;;12.61;87.74;102157.72;4994311;28;20046;-89
2022/08/28 05:45:22;;;;;;;4.05;2.35;;;;;;;14.94;78.94;102159.38;5010925;28;20937;-87
2022/08/28 05:47:50;;;;;;;6.30;2.67;;;;;;;16.89;70.25;102170.75;4996795;28;20050;-89
2022/08/28 05:50:17;;;;;;;6.00;2.65;;;;;;;18.22;64.11;102166.38;4998489;28;20051;-89
2022/08/28 05:52:44;;;;;;;4.90;2.40;;;;;;;19.07;60.50;102177.59;4998796;28;20105;-89
2022/08/28 05:55:11;;;;;;;8.35;2.88;;;;;;;19.74;57.63;102174.06;4997307;28;20047;-89
2022/08/28 05:57:39;;;;;;;3.25;2.60;;;;;;;20.31;55.83;102179.78;4997138;28;20480;-90
2022/08/28 06:00:11;;;;;;;3.33;2.47;;;;;;;20.92;54.43;102181.69;4998798;28;20075;-89
2022/08/28 06:02:38;;;;;;;;;;;;;;;21.70;55.51;102182.38;5015667;28;20050;-91
2022/08/28 06:05:06;;;;;;;3.17;2.38;;;;;;;21.79;52.08;102181.44;4999568;28;19926;-91
2022/08/28 06:07:33;;;;;;;5.40;2.65;;;;;;;22.06;51.23;102180.91;4999315;28;20059;-90
2022/08/28 06:09:59;;;;;;;5.43;2.78;;;;;;;22.10;51.30;102184.13;5001032;28;20058;-91
2022/08/28 06:12:26;;;;;;;4.53;2.78;;;;;;;22.05;51.40;102178.66;5000478;28;20110;-91
2022/08/28 06:14:53;;;;;;;4.93;2.72;;;;;;;22.14;51.33;102189.31;5015442;28;20142;-90
2022/08/28 06:17:21;;;;;;;4.03;3.00;;;;;;;22.16;51.91;102184.91;4998520;28;20905;-90
2022/08/28 06:19:49;;;;;;;5.65;3.15;;;;;;;22.03;52.41;102183.81;5015651;28;20039;-89
2022/08/28 06:22:17;;;;;;;6.13;3.15;;;;;;;22.07;52.53;102187.81;5000402;28;20081;-91
2022/08/28 06:24:46;;;;;;;6.10;2.80;;;;;;;21.73;53.60;102189.53;4997578;28;20031;-88
2022/08/28 06:27:13;;;;;;;6.22;2.60;;;;;;;21.63;54.03;102191.69;5011812;28;20117;-86
2022/08/28 06:29:40;;;;;;;5.32;2.28;;;;;;;21.39;54.93;102191.25;5012194;28;20078;-88
2022/08/28 06:32:07;;;;;;;8.07;2.10;;;;;;;20.90;56.35;102190.28;4997912;28;20054;-85
2022/08/28 06:34:34;;;;;;;6.30;2.92;;;;;;;20.54;57.08;102193.59;4995107;28;20170;-85
2022/08/28 06:37:01;;;;;;;8.30;2.25;;;;;;;20.11;58.68;102195.97;4995334;28;20424;-88
2022/08/28 06:39:27;;;;;;;8.25;2.50;;;;;;;19.83;59.66;102192.13;5011099;28;20063;-87
2022/08/28 06:41:53;;;;;;;9.30;2.13;;;;;;;19.60;60.25;102199.13;4996145;28;20390;-81
2022/08/28 06:44:21;;;;;;;6.30;2.35;;;;;;;19.22;61.27;102191.84;4995174;28;20046;-83
2022/08/28 06:46:50;;;;;;;8.70;2.00;;;;;;;19.06;61.56;102186.91;4995304;28;20097;-87
2022/08/28 06:49:17;;;;;;;8.65;2.05;;;;;;;18.93;63.19;102196.00;4995384;28;20050;-87
2022/08/28 06:51:43;;;;;;;5.28;2.25;;;;;;;18.95;62.71;102188.19;4995673;28;20047;-83
2022/08/28 06:54:10;;;;;;;5.25;2.28;;;;;;;19.10;62.96;102196.31;4995219;28;20054;-86
2022/08/28 06:56:37;;;;;;;7.68;2.00;;;;;;;19.25;62.83;102191.66;4993863;28;20653;-84
2022/08/28 06:59:03;;;;;;;7.65;2.28;;;;;;;19.44;63.14;102192.22;4994977;28;20120;-84
2022/08/28 07:01:33;;;;;;;6.55;1.90;;;;;;;19.51;61.67;102196.56;4993213;28;20492;-83
2022/08/28 07:04:09;;;;;;;5.20;1.77;;;;;;;19.39;60.27;102195.59;4994374;28;20047;-85
2022/08/28 07:06:39;;;;;;;3.97;1.83;;;;;;;19.38;60.42;102204.91;4994774;28;20051;-85
2022/08/28 07:09:11;;;;;;;8.25;2.22;;;;;;;19.28;60.89;102201.53;4994385;28;20046;-86
2022/08/28 07:11:39;;;;;;;2.35;1.52;;;;;;;19.28;60.60;102198.84;4994985;28;20047;-86
2022/08/28 07:14:06;;;;;;;6.95;1.70;;;;;;;19.24;59.72;102192.13;4996375;28;20500;-85
2022/08/28 07:16:36;;;;;;;6.28;2.05;;;;;;;19.22;60.46;102197.25;4994844;28;20447;-85
2022/08/28 07:19:05;;;;;;;4.05;1.75;;;;;;;19.22;61.11;102199.94;4994235;28;20098;-85
2022/08/28 07:21:34;;;;;;;3.90;1.70;;;;;;;19.36;60.07;102212.72;4993185;28;20058;-85
2022/08/28 07:24:05;;;;;;;4.63;1.58;;;;;;;19.50;60.16;102214.69;4994569;28;20047;-84
2022/08/28 07:26:31;;;;;;;4.95;1.63;;;;;;;19.57;59.39;102219.75;4995252;28;20053;-87
2022/08/28 07:29:02;;;;;;;4.25;1.80;;;;;;;19.63;58.96;102211.69;4993763;28;20054;-89
2022/08/28 07:31:42;;;;;;;4.25;2.05;;;;;;;19.67;58.85;102214.97;4993101;28;20058;-85
2022/08/28 07:34:10;;;;;;;3.85;1.83;;;;;;;19.74;59.23;102222.69;4993238;28;20050;-84
2022/08/28 07:36:38;;;;;;;5.63;2.03;;;;;;;19.83;58.29;102221.84;4993672;28;20053;-84
2022/08/28 07:39:05;;;;;;;4.40;1.70;;;;;;;19.79;57.47;102221.28;4994297;28;20050;-84
2022/08/28 07:41:34;;;;;;;4.68;1.73;;;;;;;19.88;57.53;102223.91;4994603;28;20073;-87
2022/08/28 07:46:46;;;;;;;6.03;1.80;;;;;;;20.04;57.78;102223.38;4994944;28;20051;-84
2022/08/28 07:49:16;;;;;;;7.28;1.98;;;;;;;20.19;57.37;102220.66;4992723;28;20054;-87
2022/08/28 07:51:43;;;;;;;5.38;1.85;;;;;;;20.32;56.74;102223.78;4994617;28;20094;-87
2022/08/28 07:54:12;;;;;;;3.58;1.60;;;;;;;20.27;56.65;102219.03;4992881;28;20043;-87
2022/08/28 07:56:43;;;;;;;;;;;;;;;20.47;57.86;102218.31;4996689;28;20047;-90
2022/08/28 07:59:10;;;;;;;5.30;1.70;;;;;;;20.72;56.29;102219.63;4996185;28;19973;-90
2022/08/28 08:01:42;;;;;;;3.78;1.85;;;;;;;20.95;55.58;102227.50;4994615;28;20051;-90
2022/08/28 08:04:12;;;;;;;6.90;1.65;;;;;;;21.15;54.87;102224.03;4994677;28;20137;-87
2022/08/28 08:06:40;;;;;;;4.75;1.70;;;;;;;21.30;53.41;102235.50;4994083;28;20473;-88
2022/08/28 08:09:09;;;;;;;4.82;1.73;;;;;;;21.44;53.56;102239.34;4994862;28;20055;-88
2022/08/28 08:11:37;;;;;;;5.55;1.85;;;;;;;21.37;51.66;102234.34;4994788;28;20489;-84
2022/08/28 08:14:04;;;;;;;2.97;1.63;;;;;;;21.34;52.10;102246.13;4993080;28;20039;-87
2022/08/28 08:16:35;;;;;;;6.47;1.83;;;;;;;21.44;52.91;102246.72;4999327;28;20057;-88
2022/08/28 08:19:02;;;;;;;7.18;1.67;;;;;;;21.59;50.52;102239.22;4998249;28;20565;-84
2022/08/28 08:21:30;;;;;;;5.03;1.70;;;;;;;21.59;51.31;102247.34;4998378;28;20043;-86
2022/08/28 08:23:57;;;;;;;8.23;1.55;;;;;;;21.72;50.79;102255.06;4994481;28;20078;-87
2022/08/28 08:26:26;;;;;;;7.05;1.63;;;;;;;21.90;50.13;102243.88;4993062;28;20079;-86
2022/08/28 08:28:54;;;;;;;2.38;1.38;;;;;;;22.08;49.61;102248.94;4993797;28;20085;-84
2022/08/28 08:31:25;;;;;;;3.95;1.70;;;;;;;22.25;49.14;102249.06;4994690;28;20043;-84
2022/08/28 08:33:54;;;;;;;;;;;;;;;22.35;51.06;102244.19;4994934;28;20539;-87
2022/08/28 08:36:21;;;;;;;3.50;1.55;;;;;;;22.05;48.43;102249.16;4992728;28;20399;-84
2022/08/28 08:38:49;;;;;;;2.10;1.48;;;;;;;21.98;48.82;102247.63;4991915;28;20523;-86
2022/08/28 08:41:50;;;;;;;5.57;1.60;;;;;;;21.98;49.94;102249.59;4993968;28;20047;-84
2022/08/28 08:44:33;;;;;;;2.67;1.30;;;;;;;22.08;49.59;102245.47;4992351;28;20053;-87
2022/08/28 08:47:18;;;;;;;2.83;1.70;;;;;;;22.27;48.65;102239.19;4994199;28;20067;-86
2022/08/28 08:49:59;;;;;;;5.07;1.40;;;;;;;22.09;48.76;102236.13;4976011;28;20063;-88
2022/08/28 08:52:29;;;;;;;4.15;2.25;;;;;;;22.07;47.86;102244.00;4992749;28;20496;-86
2022/08/28 08:55:30;;;;;;;2.67;1.58;;;;;;;22.34;49.25;102239.97;4993364;28;20047;-87
2022/08/28 08:58:05;;;;;;;3.25;1.23;;;;;;;22.42;47.95;102230.13;4989816;28;20058;-88
2022/08/28 09:00:38;;;;;;;17.48;1.92;;;;;;;22.57;47.06;102228.72;4995994;28;20090;-84
2022/08/28 09:03:11;;;;;;;7.50;1.52;;;;;;;22.77;46.96;102235.22;4992824;28;20039;-81
2022/08/28 09:05:48;;;;;;;2.45;1.52;;;;;;;22.89;46.88;102225.88;4993778;28;20050;-88
2022/08/28 09:08:32;;;;;;;2.67;1.58;;;;;;;23.02;46.45;102228.88;4994757;28;20086;-87
2022/08/28 09:11:12;;;;;;;3.67;1.70;;;;;;;23.08;46.80;102229.63;4993177;28;20050;-85
2022/08/28 09:14:04;;;;;;;4.07;1.52;;;;;;;23.24;46.55;102234.34;4994745;28;20071;-84
2022/08/28 09:16:36;;;;;;;4.90;1.40;;;;;;;23.17;44.98;102236.81;4993197;28;20050;-84
2022/08/28 09:19:03;;;;;;;3.35;1.60;;;;;;;23.11;45.39;102238.78;4977966;28;20050;-84
2022/08/28 09:21:34;;;;;;;2.70;1.40;;;;;;;23.07;44.25;102236.31;4998473;28;20039;-85
2022/08/28 09:24:03;;;;;;;12.75;8.23;;;;;;;22.87;45.02;102242.66;5000775;28;20827;-90
2022/08/28 09:26:36;;;;;;;6.55;1.95;;;;;;;23.03;45.58;102243.19;4984975;28;20051;-92
2022/08/28 09:29:15;;;;;;;5.38;1.55;;;;;;;22.93;46.07;102242.69;5003090;28;20051;-92
2022/08/28 09:31:42;;;;;;;3.45;1.23;;;;;;;22.39;46.50;102241.97;5003952;28;20051;-91
2022/08/28 09:34:58;;;;;;;7.50;1.75;;;;;;;22.27;47.57;102246.59;5002906;28;20047;-91
2022/08/28 09:37:27;;;;;;;4.30;1.40;;;;;;;22.16;46.53;102249.25;4992634;28;20574;-92
2022/08/28 09:40:14;;;;;;;7.00;1.45;;;;;;;22.16;47.80;102251.94;5004700;28;20109;-92
2022/08/28 09:45:44;;;;;;;4.03;1.40;;;;;;;21.98;46.92;102246.91;5003005;28;20047;-92
2022/08/28 09:48:22;;;;;;;3.63;2.03;;;;;;;21.93;47.57;102251.06;5000919;28;20040;-92
2022/08/28 09:51:02;;;;;;;2.78;1.80;;;;;;;21.72;47.51;102253.09;5001405;28;20047;-92
2022/08/28 09:53:31;;;;;;;2.35;1.38;;;;;;;21.59;47.17;102244.63;4999428;28;20083;-91
2022/08/28 09:56:04;;;;;;;4.63;1.27;;;;;;;21.46;48.06;102247.72;4999664;28;20047;-90
2022/08/28 09:58:39;;;;;;;;;;;;;;;21.44;49.14;102249.44;5000283;28;20066;-90
2022/08/28 10:01:23;;;;;;;5.13;1.48;;;;;;;21.28;48.76;102245.31;5000225;28;19930;-92
2022/08/28 10:04:18;;;;;;;1.85;1.25;;;;;;;21.62;48.49;102238.97;4999656;28;20401;-90
2022/08/28 10:06:57;;;;;;;6.43;1.80;;;;;;;21.35;49.45;102242.19;5000139;28;20053;-90
2022/08/28 10:09:51;;;;;;;4.57;1.13;;;;;;;21.44;48.55;102250.16;4998285;28;20054;-91
2022/08/28 10:12:29;;;;;;;3.80;1.45;;;;;;;21.82;47.32;102238.16;5000043;28;20054;-91
2022/08/28 10:15:07;;;;;;;4.35;1.40;;;;;;;22.37;45.91;102239.00;4996810;28;20054;-87
2022/08/28 10:17:52;;;;;;;2.75;1.35;;;;;;;22.67;45.36;102239.38;5000486;28;20046;-92
2022/08/28 10:20:34;;;;;;;5.78;1.40;;;;;;;22.84;45.53;102243.63;5000845;28;20054;-87
2022/08/28 10:23:26;;;;;;;7.53;1.38;;;;;;;23.06;44.63;102239.50;4998304;28;20065;-91
2022/08/28 10:26:06;;;;;;;2.90;1.30;;;;;;;23.30;43.88;102242.50;4999608;28;20101;-88
2022/08/28 10:28:32;;;;;;;3.58;2.00;;;;;;;23.51;42.45;102226.72;4997355;28;20051;-86
2022/08/28 10:31:11;;;;;;;2.97;1.50;;;;;;;23.63;42.12;102236.34;4997354;28;20054;-90
2022/08/28 10:33:51;;;;;;;4.05;1.30;;;;;;;23.47;43.37;102243.25;4995912;28;20528;-90
2022/08/28 10:36:28;;;;;;;3.30;1.50;;;;;;;23.01;43.16;102230.13;4997406;28;20101;-87
2022/08/28 10:39:08;;;;;;;2.03;1.40;;;;;;;22.56;44.28;102240.06;4996307;28;20050;-92
2022/08/28 10:41:49;;;;;;;1.45;1.35;;;;;;;22.23;45.77;102240.66;4995753;28;20043;-85
2022/08/28 10:44:51;;;;;;;3.58;1.60;;;;;;;21.98;46.54;102247.63;4995590;28;20118;-86
2022/08/28 10:47:20;;;;;;;;;;;;;;;21.87;47.26;102252.97;4996471;28;20043;-87
2022/08/28 10:49:52;;;;;;;7.13;1.48;;;;;;;21.80;45.83;102253.41;4995316;28;20025;-83
2022/08/28 10:52:26;;;;;;;6.07;1.50;;;;;;;22.35;45.66;102252.31;4995462;28;20043;-84
2022/08/28 10:54:58;;;;;;;1.67;1.30;;;;;;;22.43;44.75;102248.63;4996653;28;20102;-80
2022/08/28 10:57:38;;;;;;;4.10;1.40;;;;;;;22.65;45.16;102242.56;4993997;28;20055;-82
2022/08/28 11:00:13;;;;;;;4.68;1.40;;;;;;;23.02;43.85;102244.44;4993329;28;20571;-82
2022/08/28 11:02:44;;;;;;;3.72;1.63;;;;;;;23.20;43.19;102233.84;4994356;28;20548;-84
2022/08/28 11:05:11;;;;;;;;;;;;;;;23.50;44.34;102239.56;4995742;28;20524;-80
2022/08/28 11:07:44;;;;;;;3.67;1.30;;;;;;;23.22;42.54;102238.78;4995727;28;19933;-82
2022/08/28 11:10:31;;;;;;;3.80;1.55;;;;;;;22.84;43.17;102235.50;4994443;28;20432;-82
2022/08/28 11:12:58;;;;;;;4.32;1.65;;;;;;;22.59;44.73;102242.56;4993769;28;20515;-83
2022/08/28 11:15:27;;;;;;;1.67;1.17;;;;;;;22.84;43.89;102238.22;4994616;28;20562;-82
2022/08/28 11:18:12;;;;;;;5.25;1.58;;;;;;;23.11;43.50;102238.78;4993480;28;20055;-81
2022/08/28 11:20:55;;;;;;;3.95;1.42;;;;;;;23.14;43.11;102232.38;4994379;28;20113;-82
2022/08/28 11:23:34;;;;;;;3.90;1.50;;;;;;;23.21;42.52;102234.56;4992638;28;20125;-81
2022/08/28 11:26:06;;;;;;;7.20;1.50;;;;;;;23.00;43.45;102244.19;4993843;28;20098;-83
2022/08/28 11:28:33;;;;;;;1.67;1.40;;;;;;;22.87;43.51;102241.91;4994152;28;20046;-83
2022/08/28 11:30:59;;;;;;;3.05;1.35;;;;;;;22.80;43.79;102247.81;4993788;28;20489;-84
2022/08/28 11:33:54;;;;;;;1.35;1.20;;;;;;;22.65;44.08;102241.84;4994117;28;20035;-83
2022/08/28 11:36:21;;;;;;;1.73;1.30;;;;;;;22.84;43.76;102235.50;5008010;28;20101;-83
2022/08/28 11:38:50;;;;;;;1.50;1.40;;;;;;;23.10;43.14;102245.44;4993725;28;20439;-83
2022/08/28 11:41:35;;;;;;;7.40;1.30;;;;;;;23.16;42.92;102243.50;4994094;28;20109;-83
2022/08/28 11:44:08;;;;;;;1.92;1.23;;;;;;;23.01;43.21;102238.25;4993239;28;20055;-82
2022/08/28 11:46:37;;;;;;;4.15;1.30;;;;;;;22.82;42.22;102235.25;4993609;28;20054;-83
2022/08/28 11:49:25;;;;;;;4.05;1.50;;;;;;;23.15;43.22;102242.75;4991682;28;20055;-84